sensor_id;sensor_type;location;lat;lon;timestamp;temperature;humidity
33825;DHT22;20127;48.962;8.342;2022-11-27T00:02:14;3.30;99.90
33825;DHT22;20127;48.962;8.342;2022-11-27T00:05:16;3.40;99.90
33825;DHT22;20127;48.962;8.342;2022-11-27T00:08:19;3.40;99.90
33825;DHT22;20127;48.962;8.342;2022-11-27T00:11:22;3.50;99.90
33825;DHT22;20127;48.962;8.342;2022-11-27T00:14:27;4.60;99.90
33825;DHT22;20127;48.962;8.342;2022-11-27T00:17:29;3.60;99.90
33825;DHT22;20127;48.962;8.342;2022-11-27T00:20:32;3.80;99.90
33825;DHT22;20127;48.962;8.342;2022-11-27T00:23:36;4.90;99.90
33825;DHT22;20127;48.962;8.342;2022-11-27T00:26:42;3.80;99.90
33825;DHT22;20127;48.962;8.342;2022-11-27T00:29:46;3.90;99.90
33825;DHT22;20127;48.962;8.342;2022-11-27T00:32:47;4.00;99.90
33825;DHT22;20127;48.962;8.342;2022-11-27T00:35:49;4.90;99.90
33825;DHT22;20127;48.962;8.342;2022-11-27T00:39:07;4.00;99.90
33825;DHT22;20127;48.962;8.342;2022-11-27T00:42:11;4.10;99.90
33825;DHT22;20127;48.962;8.342;2022-11-27T00:45:13;4.00;99.90
33825;DHT22;20127;48.962;8.342;2022-11-27T00:48:14;4.20;99.90
33825;DHT22;20127;48.962;8.342;2022-11-27T00:51:19;5.60;99.90
33825;DHT22;20127;48.962;8.342;2022-11-27T00:54:25;4.30;99.90
33825;DHT22;20127;48.962;8.342;2022-11-27T00:57:30;5.00;99.90
33825;DHT22;20127;48.962;8.342;2022-11-27T01:00:31;4.30;99.90
33825;DHT22;20127;48.962;8.342;2022-11-27T01:03:34;4.30;99.90
33825;DHT22;20127;48.962;8.342;2022-11-27T01:06:36;4.40;99.90
33825;DHT22;20127;48.962;8.342;2022-11-27T01:09:39;4.40;99.90
33825;DHT22;20127;48.962;8.342;2022-11-27T01:12:40;4.50;99.90
33825;DHT22;20127;48.962;8.342;2022-11-27T01:15:42;4.60;99.90
33825;DHT22;20127;48.962;8.342;2022-11-27T01:18:45;4.60;99.90
33825;DHT22;20127;48.962;8.342;2022-11-27T01:21:48;4.70;99.90
33825;DHT22;20127;48.962;8.342;2022-11-27T01:24:52;4.70;99.90
33825;DHT22;20127;48.962;8.342;2022-11-27T01:27:54;4.60;99.90
33825;DHT22;20127;48.962;8.342;2022-11-27T01:30:56;4.60;99.90
33825;DHT22;20127;48.962;8.342;2022-11-27T01:33:59;4.60;99.90
33825;DHT22;20127;48.962;8.342;2022-11-27T01:37:01;4.60;99.90
33825;DHT22;20127;48.962;8.342;2022-11-27T01:40:08;4.60;99.90
33825;DHT22;20127;48.962;8.342;2022-11-27T01:43:14;4.60;99.90
33825;DHT22;20127;48.962;8.342;2022-11-27T01:46:33;4.50;99.90
33825;DHT22;20127;48.962;8.342;2022-11-27T01:49:36;4.50;99.90
33825;DHT22;20127;48.962;8.342;2022-11-27T01:52:41;4.50;99.90
33825;DHT22;20127;48.962;8.342;2022-11-27T01:55:46;4.50;99.90
33825;DHT22;20127;48.962;8.342;2022-11-27T01:58:48;4.50;99.90
33825;DHT22;20127;48.962;8.342;2022-11-27T02:01:50;4.50;99.90
33825;DHT22;20127;48.962;8.342;2022-11-27T02:04:52;4.60;99.90
33825;DHT22;20127;48.962;8.342;2022-11-27T02:07:57;4.80;99.90
33825;DHT22;20127;48.962;8.342;2022-11-27T02:11:03;4.70;99.90
33825;DHT22;20127;48.962;8.342;2022-11-27T02:14:08;4.60;99.90
33825;DHT22;20127;48.962;8.342;2022-11-27T02:17:16;4.70;99.90
33825;DHT22;20127;48.962;8.342;2022-11-27T02:20:39;4.80;99.90
33825;DHT22;20127;48.962;8.342;2022-11-27T02:23:52;4.80;99.90
33825;DHT22;20127;48.962;8.342;2022-11-27T02:30:19;4.80;99.90
33825;DHT22;20127;48.962;8.342;2022-11-27T02:33:21;4.80;99.90
33825;DHT22;20127;48.962;8.342;2022-11-27T02:36:25;4.90;99.90
33825;DHT22;20127;48.962;8.342;2022-11-27T02:39:31;5.00;99.90
33825;DHT22;20127;48.962;8.342;2022-11-27T02:42:36;4.90;99.90
33825;DHT22;20127;48.962;8.342;2022-11-27T02:45:42;4.90;99.90
33825;DHT22;20127;48.962;8.342;2022-11-27T02:48:45;4.80;99.90
33825;DHT22;20127;48.962;8.342;2022-11-27T02:51:50;4.70;99.90
33825;DHT22;20127;48.962;8.342;2022-11-27T02:54:55;4.60;99.90
33825;DHT22;20127;48.962;8.342;2022-11-27T02:57:58;4.60;99.90
33825;DHT22;20127;48.962;8.342;2022-11-27T03:01:02;4.60;99.90
33825;DHT22;20127;48.962;8.342;2022-11-27T03:04:07;4.70;99.90
33825;DHT22;20127;48.962;8.342;2022-11-27T03:07:13;4.70;99.90
33825;DHT22;20127;48.962;8.342;2022-11-27T03:10:16;6.00;99.90
33825;DHT22;20127;48.962;8.342;2022-11-27T03:13:19;4.70;99.90
33825;DHT22;20127;48.962;8.342;2022-11-27T03:16:26;5.30;99.90
33825;DHT22;20127;48.962;8.342;2022-11-27T03:19:34;4.90;99.90
33825;DHT22;20127;48.962;8.342;2022-11-27T03:22:39;5.00;99.90
33825;DHT22;20127;48.962;8.342;2022-11-27T03:25:43;5.10;99.90
33825;DHT22;20127;48.962;8.342;2022-11-27T03:28:45;4.90;99.90
33825;DHT22;20127;48.962;8.342;2022-11-27T03:31:49;5.00;99.90
33825;DHT22;20127;48.962;8.342;2022-11-27T03:34:50;5.10;99.90
33825;DHT22;20127;48.962;8.342;2022-11-27T03:37:53;5.20;99.90
33825;DHT22;20127;48.962;8.342;2022-11-27T03:41:00;5.30;99.90
33825;DHT22;20127;48.962;8.342;2022-11-27T03:44:06;5.40;99.90
33825;DHT22;20127;48.962;8.342;2022-11-27T03:47:11;5.30;99.90
33825;DHT22;20127;48.962;8.342;2022-11-27T03:50:19;5.30;99.90
33825;DHT22;20127;48.962;8.342;2022-11-27T03:53:23;5.30;99.90
33825;DHT22;20127;48.962;8.342;2022-11-27T03:56:30;5.30;99.90
33825;DHT22;20127;48.962;8.342;2022-11-27T03:59:36;5.40;99.90
33825;DHT22;20127;48.962;8.342;2022-11-27T04:02:41;5.30;99.90
33825;DHT22;20127;48.962;8.342;2022-11-27T04:05:43;5.40;99.90
33825;DHT22;20127;48.962;8.342;2022-11-27T04:08:46;5.50;99.90
33825;DHT22;20127;48.962;8.342;2022-11-27T04:11:47;5.40;99.90
33825;DHT22;20127;48.962;8.342;2022-11-27T04:14:49;5.40;99.90
33825;DHT22;20127;48.962;8.342;2022-11-27T04:17:52;5.50;99.90
33825;DHT22;20127;48.962;8.342;2022-11-27T04:20:54;5.60;99.90
33825;DHT22;20127;48.962;8.342;2022-11-27T04:23:55;5.70;99.90
33825;DHT22;20127;48.962;8.342;2022-11-27T04:26:57;5.80;99.90
33825;DHT22;20127;48.962;8.342;2022-11-27T04:29:59;5.80;99.90
33825;DHT22;20127;48.962;8.342;2022-11-27T04:33:01;5.80;99.90
33825;DHT22;20127;48.962;8.342;2022-11-27T04:36:03;5.80;99.90
33825;DHT22;20127;48.962;8.342;2022-11-27T04:39:05;5.80;99.90
33825;DHT22;20127;48.962;8.342;2022-11-27T04:42:07;5.90;99.90
33825;DHT22;20127;48.962;8.342;2022-11-27T04:45:08;5.90;99.90
33825;DHT22;20127;48.962;8.342;2022-11-27T04:48:12;5.90;99.90
33825;DHT22;20127;48.962;8.342;2022-11-27T04:51:13;5.90;99.90
33825;DHT22;20127;48.962;8.342;2022-11-27T04:54:15;5.90;99.90
33825;DHT22;20127;48.962;8.342;2022-11-27T04:57:17;5.90;99.90
33825;DHT22;20127;48.962;8.342;2022-11-27T05:00:19;5.90;99.90
33825;DHT22;20127;48.962;8.342;2022-11-27T05:03:22;6.00;99.90
33825;DHT22;20127;48.962;8.342;2022-11-27T05:06:24;5.90;99.90
33825;DHT22;20127;48.962;8.342;2022-11-27T05:09:25;5.80;99.90
33825;DHT22;20127;48.962;8.342;2022-11-27T05:12:27;5.80;99.90
33825;DHT22;20127;48.962;8.342;2022-11-27T05:15:29;5.90;99.90
33825;DHT22;20127;48.962;8.342;2022-11-27T05:18:31;6.00;99.90
33825;DHT22;20127;48.962;8.342;2022-11-27T05:21:33;6.00;99.90
33825;DHT22;20127;48.962;8.342;2022-11-27T05:24:35;5.90;99.90
33825;DHT22;20127;48.962;8.342;2022-11-27T05:27:36;6.00;99.90
33825;DHT22;20127;48.962;8.342;2022-11-27T05:30:38;6.00;99.90
33825;DHT22;20127;48.962;8.342;2022-11-27T05:33:41;6.00;99.90
33825;DHT22;20127;48.962;8.342;2022-11-27T05:36:42;6.00;99.90
33825;DHT22;20127;48.962;8.342;2022-11-27T05:39:44;6.00;99.90
33825;DHT22;20127;48.962;8.342;2022-11-27T05:42:45;6.00;99.90
33825;DHT22;20127;48.962;8.342;2022-11-27T05:45:47;6.00;99.90
33825;DHT22;20127;48.962;8.342;2022-11-27T05:48:50;6.00;99.90
33825;DHT22;20127;48.962;8.342;2022-11-27T05:51:51;6.00;99.90
33825;DHT22;20127;48.962;8.342;2022-11-27T05:54:53;6.00;99.90
33825;DHT22;20127;48.962;8.342;2022-11-27T05:57:55;6.00;99.90
33825;DHT22;20127;48.962;8.342;2022-11-27T06:01:01;6.00;99.90
33825;DHT22;20127;48.962;8.342;2022-11-27T06:04:04;6.10;99.90
33825;DHT22;20127;48.962;8.342;2022-11-27T06:07:05;6.00;99.90
33825;DHT22;20127;48.962;8.342;2022-11-27T06:10:07;6.00;99.90
33825;DHT22;20127;48.962;8.342;2022-11-27T06:13:09;6.00;99.90
33825;DHT22;20127;48.962;8.342;2022-11-27T06:16:11;6.00;99.90
33825;DHT22;20127;48.962;8.342;2022-11-27T06:19:14;5.90;99.90
33825;DHT22;20127;48.962;8.342;2022-11-27T06:22:16;5.80;99.90
33825;DHT22;20127;48.962;8.342;2022-11-27T06:25:17;5.80;99.90
33825;DHT22;20127;48.962;8.342;2022-11-27T06:28:19;5.80;99.90
33825;DHT22;20127;48.962;8.342;2022-11-27T06:31:22;5.70;99.90
33825;DHT22;20127;48.962;8.342;2022-11-27T06:34:25;5.70;99.90
33825;DHT22;20127;48.962;8.342;2022-11-27T06:37:27;5.60;99.90
33825;DHT22;20127;48.962;8.342;2022-11-27T06:40:28;5.50;99.90
33825;DHT22;20127;48.962;8.342;2022-11-27T06:43:30;5.60;99.90
33825;DHT22;20127;48.962;8.342;2022-11-27T06:46:32;5.70;99.90
33825;DHT22;20127;48.962;8.342;2022-11-27T06:49:35;5.80;99.90
33825;DHT22;20127;48.962;8.342;2022-11-27T06:52:36;5.90;99.90
33825;DHT22;20127;48.962;8.342;2022-11-27T06:55:38;5.90;99.90
33825;DHT22;20127;48.962;8.342;2022-11-27T06:58:39;5.90;99.90
33825;DHT22;20127;48.962;8.342;2022-11-27T07:01:41;5.80;99.90
33825;DHT22;20127;48.962;8.342;2022-11-27T07:04:44;5.90;99.90
33825;DHT22;20127;48.962;8.342;2022-11-27T07:07:46;6.00;99.90
33825;DHT22;20127;48.962;8.342;2022-11-27T07:10:47;6.00;99.90
33825;DHT22;20127;48.962;8.342;2022-11-27T07:13:49;5.90;99.90
33825;DHT22;20127;48.962;8.342;2022-11-27T07:16:51;5.80;99.90
33825;DHT22;20127;48.962;8.342;2022-11-27T07:19:54;5.70;99.90
33825;DHT22;20127;48.962;8.342;2022-11-27T07:22:56;5.60;99.90
33825;DHT22;20127;48.962;8.342;2022-11-27T07:25:57;5.60;99.90
33825;DHT22;20127;48.962;8.342;2022-11-27T07:28:59;5.70;99.90
33825;DHT22;20127;48.962;8.342;2022-11-27T07:32:00;5.70;99.90
33825;DHT22;20127;48.962;8.342;2022-11-27T07:35:04;5.70;99.90
33825;DHT22;20127;48.962;8.342;2022-11-27T07:38:05;5.60;99.90
33825;DHT22;20127;48.962;8.342;2022-11-27T07:41:07;5.60;99.90
33825;DHT22;20127;48.962;8.342;2022-11-27T07:44:09;6.80;99.90
33825;DHT22;20127;48.962;8.342;2022-11-27T07:47:10;5.70;99.90
33825;DHT22;20127;48.962;8.342;2022-11-27T07:50:13;5.90;99.90
33825;DHT22;20127;48.962;8.342;2022-11-27T07:53:15;6.00;99.90
33825;DHT22;20127;48.962;8.342;2022-11-27T07:56:17;6.10;99.90
33825;DHT22;20127;48.962;8.342;2022-11-27T07:59:19;6.10;99.90
33825;DHT22;20127;48.962;8.342;2022-11-27T08:02:20;6.10;99.90
33825;DHT22;20127;48.962;8.342;2022-11-27T08:05:23;6.10;99.90
33825;DHT22;20127;48.962;8.342;2022-11-27T08:08:25;6.10;99.90
33825;DHT22;20127;48.962;8.342;2022-11-27T08:11:27;6.00;99.90
33825;DHT22;20127;48.962;8.342;2022-11-27T08:14:29;6.00;99.90
33825;DHT22;20127;48.962;8.342;2022-11-27T08:17:30;6.00;99.90
33825;DHT22;20127;48.962;8.342;2022-11-27T08:20:33;6.00;99.90
33825;DHT22;20127;48.962;8.342;2022-11-27T08:23:35;6.00;99.90
33825;DHT22;20127;48.962;8.342;2022-11-27T08:26:37;5.90;99.90
33825;DHT22;20127;48.962;8.342;2022-11-27T08:29:38;6.00;99.90
33825;DHT22;20127;48.962;8.342;2022-11-27T08:32:40;6.10;99.90
33825;DHT22;20127;48.962;8.342;2022-11-27T08:35:47;6.30;99.90
33825;DHT22;20127;48.962;8.342;2022-11-27T08:38:49;6.50;99.90
33825;DHT22;20127;48.962;8.342;2022-11-27T08:41:50;6.70;99.90
33825;DHT22;20127;48.962;8.342;2022-11-27T08:44:52;7.10;99.90
33825;DHT22;20127;48.962;8.342;2022-11-27T08:47:54;6.90;99.90
33825;DHT22;20127;48.962;8.342;2022-11-27T08:50:57;6.90;99.90
33825;DHT22;20127;48.962;8.342;2022-11-27T08:53:58;7.00;99.90
33825;DHT22;20127;48.962;8.342;2022-11-27T08:57:00;7.10;99.90
33825;DHT22;20127;48.962;8.342;2022-11-27T09:00:04;7.20;99.90
33825;DHT22;20127;48.962;8.342;2022-11-27T09:03:39;7.30;99.90
33825;DHT22;20127;48.962;8.342;2022-11-27T09:06:44;7.40;99.90
33825;DHT22;20127;48.962;8.342;2022-11-27T09:09:46;7.40;99.90
33825;DHT22;20127;48.962;8.342;2022-11-27T09:12:48;7.40;99.90
33825;DHT22;20127;48.962;8.342;2022-11-27T09:15:54;7.50;99.90
33825;DHT22;20127;48.962;8.342;2022-11-27T09:18:57;7.60;99.90
33825;DHT22;20127;48.962;8.342;2022-11-27T09:22:11;7.50;99.90
33825;DHT22;20127;48.962;8.342;2022-11-27T09:25:13;7.50;99.90
33825;DHT22;20127;48.962;8.342;2022-11-27T09:28:19;7.60;99.90
33825;DHT22;20127;48.962;8.342;2022-11-27T09:31:22;7.60;99.90
33825;DHT22;20127;48.962;8.342;2022-11-27T09:34:25;7.60;99.90
33825;DHT22;20127;48.962;8.342;2022-11-27T09:37:28;8.30;99.90
33825;DHT22;20127;48.962;8.342;2022-11-27T09:40:47;7.90;99.90
33825;DHT22;20127;48.962;8.342;2022-11-27T09:43:50;8.80;99.90
33825;DHT22;20127;48.962;8.342;2022-11-27T09:46:52;8.10;99.90
33825;DHT22;20127;48.962;8.342;2022-11-27T09:49:56;7.70;99.90
33825;DHT22;20127;48.962;8.342;2022-11-27T09:53:03;7.80;99.90
33825;DHT22;20127;48.962;8.342;2022-11-27T09:56:09;8.70;99.90
33825;DHT22;20127;48.962;8.342;2022-11-27T09:59:13;8.00;99.90
33825;DHT22;20127;48.962;8.342;2022-11-27T10:02:15;8.10;99.90
33825;DHT22;20127;48.962;8.342;2022-11-27T10:05:19;8.20;99.90
33825;DHT22;20127;48.962;8.342;2022-11-27T10:08:27;8.20;99.90
33825;DHT22;20127;48.962;8.342;2022-11-27T10:11:50;8.20;99.90
33825;DHT22;20127;48.962;8.342;2022-11-27T10:14:59;8.30;99.90
33825;DHT22;20127;48.962;8.342;2022-11-27T10:18:07;8.20;99.90
33825;DHT22;20127;48.962;8.342;2022-11-27T10:21:24;8.20;99.90
33825;DHT22;20127;48.962;8.342;2022-11-27T10:24:40;8.20;99.90
33825;DHT22;20127;48.962;8.342;2022-11-27T10:28:22;8.10;99.90
33825;DHT22;20127;48.962;8.342;2022-11-27T10:31:59;8.10;99.90
33825;DHT22;20127;48.962;8.342;2022-11-27T10:35:30;8.10;99.90
33825;DHT22;20127;48.962;8.342;2022-11-27T10:39:02;8.20;99.90
33825;DHT22;20127;48.962;8.342;2022-11-27T12:07:35;8.90;99.90
33825;DHT22;20127;48.962;8.342;2022-11-27T12:11:03;8.70;99.90
33825;DHT22;20127;48.962;8.342;2022-11-27T12:55:15;8.50;99.90
33825;DHT22;20127;48.962;8.342;2022-11-27T12:58:20;10.50;99.90
33825;DHT22;20127;48.962;8.342;2022-11-27T13:01:32;9.30;99.90
33825;DHT22;20127;48.962;8.342;2022-11-27T13:12:06;9.20;99.90
33825;DHT22;20127;48.962;8.342;2022-11-27T13:15:30;9.30;99.90
33825;DHT22;20127;48.962;8.342;2022-11-27T13:33:26;8.80;99.90
33825;DHT22;20127;48.962;8.342;2022-11-27T13:36:34;7.30;99.90
33825;DHT22;20127;48.962;8.342;2022-11-27T13:43:20;9.60;99.90
33825;DHT22;20127;48.962;8.342;2022-11-27T14:13:00;9.30;99.90
33825;DHT22;20127;48.962;8.342;2022-11-27T14:16:20;11.20;99.90
33825;DHT22;20127;48.962;8.342;2022-11-27T14:19:27;9.40;99.90
33825;DHT22;20127;48.962;8.342;2022-11-27T14:22:34;9.90;99.90
33825;DHT22;20127;48.962;8.342;2022-11-27T14:25:41;9.20;99.90
33825;DHT22;20127;48.962;8.342;2022-11-27T14:28:48;9.10;99.90
33825;DHT22;20127;48.962;8.342;2022-11-27T14:31:58;10.90;99.90
33825;DHT22;20127;48.962;8.342;2022-11-27T14:35:24;9.00;99.90
33825;DHT22;20127;48.962;8.342;2022-11-27T14:38:46;8.80;99.90
33825;DHT22;20127;48.962;8.342;2022-11-27T14:41:59;8.60;99.90
33825;DHT22;20127;48.962;8.342;2022-11-27T14:45:04;8.60;99.90
33825;DHT22;20127;48.962;8.342;2022-11-27T14:48:11;8.80;99.90
33825;DHT22;20127;48.962;8.342;2022-11-27T14:51:42;8.70;99.90
33825;DHT22;20127;48.962;8.342;2022-11-27T14:54:44;8.40;99.90
33825;DHT22;20127;48.962;8.342;2022-11-27T14:57:47;8.40;99.90
33825;DHT22;20127;48.962;8.342;2022-11-27T15:00:55;8.50;99.90
33825;DHT22;20127;48.962;8.342;2022-11-27T15:03:57;8.50;99.90
33825;DHT22;20127;48.962;8.342;2022-11-27T15:07:00;8.40;99.90
33825;DHT22;20127;48.962;8.342;2022-11-27T15:10:06;8.50;99.90
33825;DHT22;20127;48.962;8.342;2022-11-27T15:13:21;8.40;99.90
33825;DHT22;20127;48.962;8.342;2022-11-27T15:16:30;8.50;99.90
33825;DHT22;20127;48.962;8.342;2022-11-27T15:19:34;8.50;99.90
33825;DHT22;20127;48.962;8.342;2022-11-27T15:22:37;8.50;99.90
33825;DHT22;20127;48.962;8.342;2022-11-27T15:25:41;8.00;99.90
33825;DHT22;20127;48.962;8.342;2022-11-27T15:28:50;8.50;99.90
33825;DHT22;20127;48.962;8.342;2022-11-27T15:31:54;8.60;99.90
33825;DHT22;20127;48.962;8.342;2022-11-27T15:34:56;8.50;99.90
33825;DHT22;20127;48.962;8.342;2022-11-27T15:37:58;9.00;99.90
33825;DHT22;20127;48.962;8.342;2022-11-27T15:41:04;9.20;99.90
33825;DHT22;20127;48.962;8.342;2022-11-27T15:44:07;9.30;99.90
33825;DHT22;20127;48.962;8.342;2022-11-27T15:47:25;9.60;99.90
33825;DHT22;20127;48.962;8.342;2022-11-27T15:50:28;9.50;99.90
33825;DHT22;20127;48.962;8.342;2022-11-27T15:53:30;9.30;99.90
33825;DHT22;20127;48.962;8.342;2022-11-27T15:56:32;9.30;99.90
33825;DHT22;20127;48.962;8.342;2022-11-27T15:59:33;9.10;99.90
33825;DHT22;20127;48.962;8.342;2022-11-27T16:02:37;9.20;99.90
33825;DHT22;20127;48.962;8.342;2022-11-27T16:05:39;6.70;99.90
33825;DHT22;20127;48.962;8.342;2022-11-27T16:08:41;10.50;99.90
33825;DHT22;20127;48.962;8.342;2022-11-27T16:11:43;9.00;99.90
33825;DHT22;20127;48.962;8.342;2022-11-27T16:14:45;8.90;99.90
33825;DHT22;20127;48.962;8.342;2022-11-27T16:17:48;8.80;99.90
33825;DHT22;20127;48.962;8.342;2022-11-27T16:20:50;8.80;99.90
33825;DHT22;20127;48.962;8.342;2022-11-27T16:23:55;8.50;99.90
33825;DHT22;20127;48.962;8.342;2022-11-27T16:26:58;8.60;99.90
33825;DHT22;20127;48.962;8.342;2022-11-27T16:30:02;8.60;99.90
33825;DHT22;20127;48.962;8.342;2022-11-27T16:33:06;8.40;99.90
33825;DHT22;20127;48.962;8.342;2022-11-27T16:36:16;8.40;99.90
33825;DHT22;20127;48.962;8.342;2022-11-27T16:39:25;8.30;99.90
33825;DHT22;20127;48.962;8.342;2022-11-27T16:42:27;8.00;99.90
33825;DHT22;20127;48.962;8.342;2022-11-27T16:45:29;8.10;99.90
33825;DHT22;20127;48.962;8.342;2022-11-27T16:48:36;7.70;99.90
33825;DHT22;20127;48.962;8.342;2022-11-27T16:51:38;7.40;99.90
33825;DHT22;20127;48.962;8.342;2022-11-27T16:54:40;8.00;99.90
33825;DHT22;20127;48.962;8.342;2022-11-27T16:57:42;7.70;99.90
33825;DHT22;20127;48.962;8.342;2022-11-27T17:00:44;8.00;99.90
33825;DHT22;20127;48.962;8.342;2022-11-27T17:04:00;7.90;99.90
33825;DHT22;20127;48.962;8.342;2022-11-27T17:07:06;7.70;99.90
33825;DHT22;20127;48.962;8.342;2022-11-27T17:10:21;7.80;99.90
33825;DHT22;20127;48.962;8.342;2022-11-27T17:13:24;7.60;99.90
33825;DHT22;20127;48.962;8.342;2022-11-27T17:16:26;8.00;99.90
33825;DHT22;20127;48.962;8.342;2022-11-27T17:19:34;7.80;99.90
33825;DHT22;20127;48.962;8.342;2022-11-27T17:22:39;7.90;99.90
33825;DHT22;20127;48.962;8.342;2022-11-27T17:28:19;9.60;99.90
33825;DHT22;20127;48.962;8.342;2022-11-27T17:30:00;7.70;99.90
33825;DHT22;20127;48.962;8.342;2022-11-27T17:33:15;7.80;99.90
33825;DHT22;20127;48.962;8.342;2022-11-27T17:36:19;7.90;99.90
33825;DHT22;20127;48.962;8.342;2022-11-27T17:47:47;7.90;99.90
33825;DHT22;20127;48.962;8.342;2022-11-27T17:50:49;8.00;99.90
33825;DHT22;20127;48.962;8.342;2022-11-27T17:57:46;8.10;99.90
33825;DHT22;20127;48.962;8.342;2022-11-27T18:00:48;8.40;99.90
33825;DHT22;20127;48.962;8.342;2022-11-27T18:03:53;8.30;99.90
33825;DHT22;20127;48.962;8.342;2022-11-27T18:06:55;8.30;99.90
33825;DHT22;20127;48.962;8.342;2022-11-27T18:10:00;10.00;99.90
33825;DHT22;20127;48.962;8.342;2022-11-27T18:13:03;9.70;99.90
33825;DHT22;20127;48.962;8.342;2022-11-27T18:16:07;8.00;99.90
33825;DHT22;20127;48.962;8.342;2022-11-27T18:19:10;8.20;99.90
33825;DHT22;20127;48.962;8.342;2022-11-27T18:22:12;8.20;99.90
33825;DHT22;20127;48.962;8.342;2022-11-27T18:25:16;9.80;99.90
33825;DHT22;20127;48.962;8.342;2022-11-27T18:28:26;7.50;99.90
33825;DHT22;20127;48.962;8.342;2022-11-27T18:31:33;8.30;99.90
33825;DHT22;20127;48.962;8.342;2022-11-27T18:34:44;8.20;99.90
33825;DHT22;20127;48.962;8.342;2022-11-27T18:38:21;8.10;99.90
33825;DHT22;20127;48.962;8.342;2022-11-27T18:45:41;8.30;99.90
33825;DHT22;20127;48.962;8.342;2022-11-27T18:48:42;8.50;99.90
33825;DHT22;20127;48.962;8.342;2022-11-27T18:51:45;9.00;99.90
33825;DHT22;20127;48.962;8.342;2022-11-27T18:54:46;9.70;99.90
33825;DHT22;20127;48.962;8.342;2022-11-27T18:57:54;9.40;99.90
33825;DHT22;20127;48.962;8.342;2022-11-27T19:01:00;9.50;99.90
33825;DHT22;20127;48.962;8.342;2022-11-27T19:04:03;9.50;99.90
33825;DHT22;20127;48.962;8.342;2022-11-27T19:07:06;9.80;99.90
33825;DHT22;20127;48.962;8.342;2022-11-27T19:10:14;9.80;99.90
33825;DHT22;20127;48.962;8.342;2022-11-27T19:13:18;9.90;99.90
33825;DHT22;20127;48.962;8.342;2022-11-27T19:20:04;10.10;99.90
33825;DHT22;20127;48.962;8.342;2022-11-27T19:23:09;10.20;99.90
33825;DHT22;20127;48.962;8.342;2022-11-27T19:33:18;9.40;99.90
33825;DHT22;20127;48.962;8.342;2022-11-27T19:36:27;9.10;99.90
33825;DHT22;20127;48.962;8.342;2022-11-27T19:39:55;8.90;99.90
33825;DHT22;20127;48.962;8.342;2022-11-27T19:43:09;9.80;99.90
33825;DHT22;20127;48.962;8.342;2022-11-27T19:46:18;8.70;99.90
33825;DHT22;20127;48.962;8.342;2022-11-27T19:52:32;8.80;99.90
33825;DHT22;20127;48.962;8.342;2022-11-27T20:00:12;7.40;99.90
33825;DHT22;20127;48.962;8.342;2022-11-27T20:03:28;8.60;99.90
33825;DHT22;20127;48.962;8.342;2022-11-27T20:06:33;8.50;99.90
33825;DHT22;20127;48.962;8.342;2022-11-27T20:09:40;8.60;99.90
33825;DHT22;20127;48.962;8.342;2022-11-27T20:12:47;8.60;99.90
33825;DHT22;20127;48.962;8.342;2022-11-27T20:15:49;8.40;99.90
33825;DHT22;20127;48.962;8.342;2022-11-27T20:18:52;8.50;99.90
33825;DHT22;20127;48.962;8.342;2022-11-27T20:21:54;10.00;99.90
33825;DHT22;20127;48.962;8.342;2022-11-27T20:24:57;8.30;99.90
33825;DHT22;20127;48.962;8.342;2022-11-27T20:28:00;8.30;99.90
33825;DHT22;20127;48.962;8.342;2022-11-27T20:31:03;8.10;99.90
33825;DHT22;20127;48.962;8.342;2022-11-27T20:34:05;8.20;99.90
33825;DHT22;20127;48.962;8.342;2022-11-27T20:37:11;8.30;99.90
33825;DHT22;20127;48.962;8.342;2022-11-27T20:40:16;8.10;99.90
33825;DHT22;20127;48.962;8.342;2022-11-27T20:43:19;8.30;99.90
33825;DHT22;20127;48.962;8.342;2022-11-27T20:46:24;8.10;99.90
33825;DHT22;20127;48.962;8.342;2022-11-27T20:49:29;8.20;99.90
33825;DHT22;20127;48.962;8.342;2022-11-27T20:53:14;8.10;99.90
33825;DHT22;20127;48.962;8.342;2022-11-27T20:56:38;8.20;99.90
33825;DHT22;20127;48.962;8.342;2022-11-27T20:59:40;7.70;99.90
33825;DHT22;20127;48.962;8.342;2022-11-27T21:02:42;7.90;99.90
33825;DHT22;20127;48.962;8.342;2022-11-27T21:05:44;8.00;99.90
33825;DHT22;20127;48.962;8.342;2022-11-27T21:08:47;8.30;99.90
33825;DHT22;20127;48.962;8.342;2022-11-27T21:11:51;7.90;99.90
33825;DHT22;20127;48.962;8.342;2022-11-27T21:14:53;8.00;99.90
33825;DHT22;20127;48.962;8.342;2022-11-27T21:18:00;7.90;99.90
33825;DHT22;20127;48.962;8.342;2022-11-27T21:21:05;7.90;99.90
33825;DHT22;20127;48.962;8.342;2022-11-27T21:24:08;7.80;99.90
33825;DHT22;20127;48.962;8.342;2022-11-27T21:27:14;7.70;99.90
33825;DHT22;20127;48.962;8.342;2022-11-27T21:30:16;7.90;99.90
33825;DHT22;20127;48.962;8.342;2022-11-27T21:33:24;7.90;99.90
33825;DHT22;20127;48.962;8.342;2022-11-27T21:36:28;7.60;99.90
33825;DHT22;20127;48.962;8.342;2022-11-27T21:39:32;7.70;99.90
33825;DHT22;20127;48.962;8.342;2022-11-27T21:42:35;6.10;99.90
33825;DHT22;20127;48.962;8.342;2022-11-27T21:45:55;8.00;99.90
33825;DHT22;20127;48.962;8.342;2022-11-27T21:49:02;7.90;99.90
33825;DHT22;20127;48.962;8.342;2022-11-27T21:52:13;8.00;99.90
33825;DHT22;20127;48.962;8.342;2022-11-27T21:55:32;7.80;99.90
33825;DHT22;20127;48.962;8.342;2022-11-27T21:58:46;7.80;99.90
33825;DHT22;20127;48.962;8.342;2022-11-27T22:01:51;7.60;99.90
33825;DHT22;20127;48.962;8.342;2022-11-27T22:04:53;6.50;99.90
33825;DHT22;20127;48.962;8.342;2022-11-27T22:07:58;8.40;99.90
33825;DHT22;20127;48.962;8.342;2022-11-27T22:11:00;9.10;99.90
33825;DHT22;20127;48.962;8.342;2022-11-27T22:14:05;7.80;99.90
33825;DHT22;20127;48.962;8.342;2022-11-27T22:17:12;8.00;99.90
33825;DHT22;20127;48.962;8.342;2022-11-27T22:20:35;7.90;99.90
33825;DHT22;20127;48.962;8.342;2022-11-27T22:23:39;6.90;99.90
33825;DHT22;20127;48.962;8.342;2022-11-27T22:26:57;8.10;99.90
33825;DHT22;20127;48.962;8.342;2022-11-27T22:30:11;7.90;99.90
33825;DHT22;20127;48.962;8.342;2022-11-27T22:33:30;8.00;99.90
33825;DHT22;20127;48.962;8.342;2022-11-27T22:36:59;8.10;99.90
33825;DHT22;20127;48.962;8.342;2022-11-27T22:40:04;7.90;99.90
33825;DHT22;20127;48.962;8.342;2022-11-27T22:43:06;8.00;99.90
33825;DHT22;20127;48.962;8.342;2022-11-27T22:46:41;8.00;99.90
33825;DHT22;20127;48.962;8.342;2022-11-27T22:49:53;9.90;99.90
33825;DHT22;20127;48.962;8.342;2022-11-27T22:53:23;7.80;99.90
33825;DHT22;20127;48.962;8.342;2022-11-27T22:56:37;8.70;99.90
33825;DHT22;20127;48.962;8.342;2022-11-27T22:59:40;8.90;99.90
33825;DHT22;20127;48.962;8.342;2022-11-27T23:02:52;9.30;99.90
33825;DHT22;20127;48.962;8.342;2022-11-27T23:05:55;7.90;99.90
33825;DHT22;20127;48.962;8.342;2022-11-27T23:09:08;7.90;99.90
33825;DHT22;20127;48.962;8.342;2022-11-27T23:12:46;7.70;99.90
33825;DHT22;20127;48.962;8.342;2022-11-27T23:16:29;7.90;99.90
33825;DHT22;20127;48.962;8.342;2022-11-27T23:19:43;7.80;99.90
33825;DHT22;20127;48.962;8.342;2022-11-27T23:22:57;7.80;99.90
